sensor_id;sensor_type;location;lat;lon;timestamp;temperature;humidity
6538;DHT22;3302;52.508;13.454;2023-11-22T00:01:04;1.10;99.90
6538;DHT22;3302;52.508;13.454;2023-11-22T00:03:30;1.10;99.90
6538;DHT22;3302;52.508;13.454;2023-11-22T00:05:56;1.20;99.90
6538;DHT22;3302;52.508;13.454;2023-11-22T00:08:22;1.20;99.90
6538;DHT22;3302;52.508;13.454;2023-11-22T00:10:48;1.30;99.90
6538;DHT22;3302;52.508;13.454;2023-11-22T00:13:14;1.20;99.90
6538;DHT22;3302;52.508;13.454;2023-11-22T00:15:40;1.20;99.90
6538;DHT22;3302;52.508;13.454;2023-11-22T00:18:05;1.20;99.90
6538;DHT22;3302;52.508;13.454;2023-11-22T00:20:31;1.10;99.90
6538;DHT22;3302;52.508;13.454;2023-11-22T00:22:59;1.10;99.90
6538;DHT22;3302;52.508;13.454;2023-11-22T00:25:25;1.10;99.90
6538;DHT22;3302;52.508;13.454;2023-11-22T00:27:51;1.10;99.90
6538;DHT22;3302;52.508;13.454;2023-11-22T00:30:17;1.10;99.90
6538;DHT22;3302;52.508;13.454;2023-11-22T00:32:42;1.00;99.90
6538;DHT22;3302;52.508;13.454;2023-11-22T00:35:08;1.10;99.90
6538;DHT22;3302;52.508;13.454;2023-11-22T00:37:34;1.10;99.90
6538;DHT22;3302;52.508;13.454;2023-11-22T00:40:03;1.10;99.90
6538;DHT22;3302;52.508;13.454;2023-11-22T00:42:39;1.10;99.90
6538;DHT22;3302;52.508;13.454;2023-11-22T00:45:07;1.10;99.90
6538;DHT22;3302;52.508;13.454;2023-11-22T00:47:33;1.10;99.90
6538;DHT22;3302;52.508;13.454;2023-11-22T00:49:59;1.20;99.90
6538;DHT22;3302;52.508;13.454;2023-11-22T00:52:26;1.20;99.90
6538;DHT22;3302;52.508;13.454;2023-11-22T00:54:53;1.20;99.90
6538;DHT22;3302;52.508;13.454;2023-11-22T00:57:18;1.20;99.90
6538;DHT22;3302;52.508;13.454;2023-11-22T00:59:44;1.20;99.90
6538;DHT22;3302;52.508;13.454;2023-11-22T01:02:10;1.20;99.90
6538;DHT22;3302;52.508;13.454;2023-11-22T01:04:36;1.20;99.90
6538;DHT22;3302;52.508;13.454;2023-11-22T01:07:03;1.20;99.90
6538;DHT22;3302;52.508;13.454;2023-11-22T01:09:33;1.20;99.90
6538;DHT22;3302;52.508;13.454;2023-11-22T01:11:59;1.20;99.90
6538;DHT22;3302;52.508;13.454;2023-11-22T01:14:25;1.10;99.90
6538;DHT22;3302;52.508;13.454;2023-11-22T01:16:52;1.10;99.90
6538;DHT22;3302;52.508;13.454;2023-11-22T01:19:20;1.10;99.90
6538;DHT22;3302;52.508;13.454;2023-11-22T01:21:46;1.00;99.90
6538;DHT22;3302;52.508;13.454;2023-11-22T01:24:13;1.00;99.90
6538;DHT22;3302;52.508;13.454;2023-11-22T01:26:38;1.00;99.90
6538;DHT22;3302;52.508;13.454;2023-11-22T01:29:05;1.00;99.90
6538;DHT22;3302;52.508;13.454;2023-11-22T01:31:31;1.00;99.90
6538;DHT22;3302;52.508;13.454;2023-11-22T01:33:59;0.90;99.90
6538;DHT22;3302;52.508;13.454;2023-11-22T01:36:26;1.00;99.90
6538;DHT22;3302;52.508;13.454;2023-11-22T01:38:51;1.00;99.90
6538;DHT22;3302;52.508;13.454;2023-11-22T01:41:18;0.90;99.90
6538;DHT22;3302;52.508;13.454;2023-11-22T01:43:45;0.90;99.90
6538;DHT22;3302;52.508;13.454;2023-11-22T01:46:23;0.80;99.90
6538;DHT22;3302;52.508;13.454;2023-11-22T01:48:50;0.80;99.90
6538;DHT22;3302;52.508;13.454;2023-11-22T01:51:22;0.70;99.90
6538;DHT22;3302;52.508;13.454;2023-11-22T01:53:52;0.60;99.90
6538;DHT22;3302;52.508;13.454;2023-11-22T01:56:23;0.60;99.90
6538;DHT22;3302;52.508;13.454;2023-11-22T01:58:49;0.60;99.90
6538;DHT22;3302;52.508;13.454;2023-11-22T02:01:15;0.60;99.90
6538;DHT22;3302;52.508;13.454;2023-11-22T02:03:42;0.50;99.90
6538;DHT22;3302;52.508;13.454;2023-11-22T02:06:08;0.50;99.90
6538;DHT22;3302;52.508;13.454;2023-11-22T02:08:35;0.60;99.90
6538;DHT22;3302;52.508;13.454;2023-11-22T02:11:01;0.50;99.40
6538;DHT22;3302;52.508;13.454;2023-11-22T02:13:31;0.50;98.40
6538;DHT22;3302;52.508;13.454;2023-11-22T02:15:57;0.40;97.80
6538;DHT22;3302;52.508;13.454;2023-11-22T02:18:28;0.40;97.40
6538;DHT22;3302;52.508;13.454;2023-11-22T02:20:54;0.40;97.60
6538;DHT22;3302;52.508;13.454;2023-11-22T02:23:19;0.50;97.40
6538;DHT22;3302;52.508;13.454;2023-11-22T02:25:45;0.50;97.10
6538;DHT22;3302;52.508;13.454;2023-11-22T02:28:12;0.50;97.50
6538;DHT22;3302;52.508;13.454;2023-11-22T02:30:38;0.50;97.60
6538;DHT22;3302;52.508;13.454;2023-11-22T02:33:04;0.50;97.10
6538;DHT22;3302;52.508;13.454;2023-11-22T02:35:31;0.40;97.30
6538;DHT22;3302;52.508;13.454;2023-11-22T02:37:58;0.40;96.90
6538;DHT22;3302;52.508;13.454;2023-11-22T02:40:25;0.40;97.20
6538;DHT22;3302;52.508;13.454;2023-11-22T02:42:53;0.30;97.50
6538;DHT22;3302;52.508;13.454;2023-11-22T02:45:26;0.30;97.70
6538;DHT22;3302;52.508;13.454;2023-11-22T02:47:52;0.30;97.50
6538;DHT22;3302;52.508;13.454;2023-11-22T02:50:18;0.30;97.40
6538;DHT22;3302;52.508;13.454;2023-11-22T02:52:44;0.30;96.90
6538;DHT22;3302;52.508;13.454;2023-11-22T02:55:10;0.40;97.40
6538;DHT22;3302;52.508;13.454;2023-11-22T02:57:37;0.30;96.90
6538;DHT22;3302;52.508;13.454;2023-11-22T03:00:10;0.20;96.40
6538;DHT22;3302;52.508;13.454;2023-11-22T03:02:40;0.20;96.70
6538;DHT22;3302;52.508;13.454;2023-11-22T03:05:09;0.20;96.80
6538;DHT22;3302;52.508;13.454;2023-11-22T03:07:35;0.20;96.90
6538;DHT22;3302;52.508;13.454;2023-11-22T03:10:02;0.20;96.90
6538;DHT22;3302;52.508;13.454;2023-11-22T03:12:28;0.20;97.20
6538;DHT22;3302;52.508;13.454;2023-11-22T03:14:54;0.10;97.10
6538;DHT22;3302;52.508;13.454;2023-11-22T03:17:29;0.10;97.60
6538;DHT22;3302;52.508;13.454;2023-11-22T03:19:55;0.00;97.90
6538;DHT22;3302;52.508;13.454;2023-11-22T03:22:23;0.10;98.00
6538;DHT22;3302;52.508;13.454;2023-11-22T03:24:50;0.10;98.00
6538;DHT22;3302;52.508;13.454;2023-11-22T03:27:16;0.10;98.30
6538;DHT22;3302;52.508;13.454;2023-11-22T03:29:43;0.10;98.50
6538;DHT22;3302;52.508;13.454;2023-11-22T03:32:10;-0.10;99.50
6538;DHT22;3302;52.508;13.454;2023-11-22T03:34:37;-0.10;99.90
6538;DHT22;3302;52.508;13.454;2023-11-22T03:37:03;0.00;99.90
6538;DHT22;3302;52.508;13.454;2023-11-22T03:39:28;0.00;99.90
6538;DHT22;3302;52.508;13.454;2023-11-22T03:41:54;0.00;99.90
6538;DHT22;3302;52.508;13.454;2023-11-22T03:44:20;0.10;99.90
6538;DHT22;3302;52.508;13.454;2023-11-22T03:46:46;-0.10;99.90
6538;DHT22;3302;52.508;13.454;2023-11-22T03:49:12;-0.10;99.90
6538;DHT22;3302;52.508;13.454;2023-11-22T03:51:39;0.00;99.90
6538;DHT22;3302;52.508;13.454;2023-11-22T03:54:05;0.00;99.90
6538;DHT22;3302;52.508;13.454;2023-11-22T03:56:31;-0.10;99.90
6538;DHT22;3302;52.508;13.454;2023-11-22T03:58:57;0.00;99.90
6538;DHT22;3302;52.508;13.454;2023-11-22T04:01:22;-0.10;99.90
6538;DHT22;3302;52.508;13.454;2023-11-22T04:03:48;-0.10;99.90
6538;DHT22;3302;52.508;13.454;2023-11-22T04:06:15;-0.20;99.90
6538;DHT22;3302;52.508;13.454;2023-11-22T04:08:46;-0.10;99.90
6538;DHT22;3302;52.508;13.454;2023-11-22T04:11:12;-0.10;99.90
6538;DHT22;3302;52.508;13.454;2023-11-22T04:13:38;-0.20;99.90
6538;DHT22;3302;52.508;13.454;2023-11-22T04:16:06;-0.10;99.90
6538;DHT22;3302;52.508;13.454;2023-11-22T04:18:39;-0.20;99.90
6538;DHT22;3302;52.508;13.454;2023-11-22T04:21:06;-0.30;99.90
6538;DHT22;3302;52.508;13.454;2023-11-22T04:23:32;-0.30;99.90
6538;DHT22;3302;52.508;13.454;2023-11-22T04:26:01;-0.30;99.90
6538;DHT22;3302;52.508;13.454;2023-11-22T04:28:28;-0.30;99.90
6538;DHT22;3302;52.508;13.454;2023-11-22T04:30:57;-0.40;99.90
6538;DHT22;3302;52.508;13.454;2023-11-22T04:33:23;-0.30;99.90
6538;DHT22;3302;52.508;13.454;2023-11-22T04:35:50;-0.30;99.90
6538;DHT22;3302;52.508;13.454;2023-11-22T04:38:16;-0.30;99.90
6538;DHT22;3302;52.508;13.454;2023-11-22T04:40:43;-0.30;99.90
6538;DHT22;3302;52.508;13.454;2023-11-22T04:43:09;-0.30;99.90
6538;DHT22;3302;52.508;13.454;2023-11-22T04:45:35;-0.30;99.90
6538;DHT22;3302;52.508;13.454;2023-11-22T04:48:01;-0.30;99.90
6538;DHT22;3302;52.508;13.454;2023-11-22T04:50:27;-0.30;99.90
6538;DHT22;3302;52.508;13.454;2023-11-22T04:52:52;-0.40;99.90
6538;DHT22;3302;52.508;13.454;2023-11-22T04:55:18;-0.40;99.90
6538;DHT22;3302;52.508;13.454;2023-11-22T04:57:46;-0.30;99.90
6538;DHT22;3302;52.508;13.454;2023-11-22T05:00:12;-0.20;99.90
6538;DHT22;3302;52.508;13.454;2023-11-22T05:02:38;-0.30;99.90
6538;DHT22;3302;52.508;13.454;2023-11-22T05:05:04;-0.30;99.90
6538;DHT22;3302;52.508;13.454;2023-11-22T05:07:30;-0.30;99.90
6538;DHT22;3302;52.508;13.454;2023-11-22T05:09:55;-0.30;99.90
6538;DHT22;3302;52.508;13.454;2023-11-22T05:12:21;-0.30;99.90
6538;DHT22;3302;52.508;13.454;2023-11-22T05:14:47;-0.40;99.90
6538;DHT22;3302;52.508;13.454;2023-11-22T05:17:13;-0.40;99.90
6538;DHT22;3302;52.508;13.454;2023-11-22T05:19:39;-0.30;99.90
6538;DHT22;3302;52.508;13.454;2023-11-22T05:22:05;-0.30;99.90
6538;DHT22;3302;52.508;13.454;2023-11-22T05:24:31;-0.30;99.90
6538;DHT22;3302;52.508;13.454;2023-11-22T05:26:56;-0.40;99.90
6538;DHT22;3302;52.508;13.454;2023-11-22T05:29:22;-0.30;99.90
6538;DHT22;3302;52.508;13.454;2023-11-22T05:31:48;-0.40;99.90
6538;DHT22;3302;52.508;13.454;2023-11-22T05:34:14;-0.50;99.90
6538;DHT22;3302;52.508;13.454;2023-11-22T05:36:40;-0.50;99.90
6538;DHT22;3302;52.508;13.454;2023-11-22T05:39:06;-0.50;99.90
6538;DHT22;3302;52.508;13.454;2023-11-22T05:41:32;-0.50;99.90
6538;DHT22;3302;52.508;13.454;2023-11-22T05:43:58;-0.60;99.90
6538;DHT22;3302;52.508;13.454;2023-11-22T05:46:24;-0.50;99.90
6538;DHT22;3302;52.508;13.454;2023-11-22T05:48:54;-0.50;99.90
6538;DHT22;3302;52.508;13.454;2023-11-22T05:51:20;-0.50;99.90
6538;DHT22;3302;52.508;13.454;2023-11-22T05:53:47;-0.50;99.90
6538;DHT22;3302;52.508;13.454;2023-11-22T05:56:13;-0.50;99.90
6538;DHT22;3302;52.508;13.454;2023-11-22T05:58:40;-0.40;99.90
6538;DHT22;3302;52.508;13.454;2023-11-22T06:01:09;-0.50;99.60
6538;DHT22;3302;52.508;13.454;2023-11-22T06:03:37;-0.50;99.90
6538;DHT22;3302;52.508;13.454;2023-11-22T06:06:05;-0.50;99.90
6538;DHT22;3302;52.508;13.454;2023-11-22T06:08:31;-0.40;99.90
6538;DHT22;3302;52.508;13.454;2023-11-22T06:10:57;-0.40;99.90
6538;DHT22;3302;52.508;13.454;2023-11-22T06:13:25;-0.40;99.90
6538;DHT22;3302;52.508;13.454;2023-11-22T06:15:51;-0.50;99.90
6538;DHT22;3302;52.508;13.454;2023-11-22T06:18:17;-0.40;99.90
6538;DHT22;3302;52.508;13.454;2023-11-22T06:20:45;-0.50;99.90
6538;DHT22;3302;52.508;13.454;2023-11-22T06:23:11;-0.60;99.90
6538;DHT22;3302;52.508;13.454;2023-11-22T06:25:36;-0.50;99.90
6538;DHT22;3302;52.508;13.454;2023-11-22T06:28:03;-0.50;99.90
6538;DHT22;3302;52.508;13.454;2023-11-22T06:30:29;-0.50;99.90
6538;DHT22;3302;52.508;13.454;2023-11-22T06:32:56;-0.50;99.90
6538;DHT22;3302;52.508;13.454;2023-11-22T06:35:22;-0.60;99.90
6538;DHT22;3302;52.508;13.454;2023-11-22T06:37:48;-0.60;99.90
6538;DHT22;3302;52.508;13.454;2023-11-22T06:40:14;-0.60;99.90
6538;DHT22;3302;52.508;13.454;2023-11-22T06:42:41;-0.60;99.90
6538;DHT22;3302;52.508;13.454;2023-11-22T06:45:07;-0.70;99.90
6538;DHT22;3302;52.508;13.454;2023-11-22T06:47:42;-0.80;99.90
6538;DHT22;3302;52.508;13.454;2023-11-22T06:50:08;-0.70;99.90
6538;DHT22;3302;52.508;13.454;2023-11-22T06:52:35;-0.70;99.90
6538;DHT22;3302;52.508;13.454;2023-11-22T06:55:02;-0.70;99.90
6538;DHT22;3302;52.508;13.454;2023-11-22T06:57:28;-0.70;99.90
6538;DHT22;3302;52.508;13.454;2023-11-22T06:59:57;-0.70;99.90
6538;DHT22;3302;52.508;13.454;2023-11-22T07:02:23;-0.80;99.90
6538;DHT22;3302;52.508;13.454;2023-11-22T07:04:50;-0.80;99.90
6538;DHT22;3302;52.508;13.454;2023-11-22T07:07:15;-0.80;99.90
6538;DHT22;3302;52.508;13.454;2023-11-22T07:09:44;-0.80;99.90
6538;DHT22;3302;52.508;13.454;2023-11-22T07:12:10;-0.70;99.90
6538;DHT22;3302;52.508;13.454;2023-11-22T07:14:36;-0.80;99.90
6538;DHT22;3302;52.508;13.454;2023-11-22T07:17:02;-0.80;99.90
6538;DHT22;3302;52.508;13.454;2023-11-22T07:19:29;-0.80;99.90
6538;DHT22;3302;52.508;13.454;2023-11-22T07:21:55;-0.80;99.90
6538;DHT22;3302;52.508;13.454;2023-11-22T07:24:20;-0.90;99.90
6538;DHT22;3302;52.508;13.454;2023-11-22T07:26:46;-0.80;99.90
6538;DHT22;3302;52.508;13.454;2023-11-22T07:29:13;-0.70;99.90
6538;DHT22;3302;52.508;13.454;2023-11-22T07:31:39;-0.70;99.90
6538;DHT22;3302;52.508;13.454;2023-11-22T07:34:05;-0.70;99.90
6538;DHT22;3302;52.508;13.454;2023-11-22T07:36:32;-0.80;99.90
6538;DHT22;3302;52.508;13.454;2023-11-22T07:38:58;-0.70;99.90
6538;DHT22;3302;52.508;13.454;2023-11-22T07:41:24;-0.60;99.90
6538;DHT22;3302;52.508;13.454;2023-11-22T07:43:52;-0.70;99.90
6538;DHT22;3302;52.508;13.454;2023-11-22T07:46:17;-0.70;99.90
6538;DHT22;3302;52.508;13.454;2023-11-22T07:48:44;-0.70;99.90
6538;DHT22;3302;52.508;13.454;2023-11-22T07:51:13;-0.80;99.90
6538;DHT22;3302;52.508;13.454;2023-11-22T07:53:42;-0.70;99.90
6538;DHT22;3302;52.508;13.454;2023-11-22T07:56:09;-0.70;99.90
6538;DHT22;3302;52.508;13.454;2023-11-22T07:58:43;-0.60;99.90
6538;DHT22;3302;52.508;13.454;2023-11-22T08:01:12;-0.60;99.90
6538;DHT22;3302;52.508;13.454;2023-11-22T08:03:39;-0.50;99.90
6538;DHT22;3302;52.508;13.454;2023-11-22T08:06:11;-0.50;99.90
6538;DHT22;3302;52.508;13.454;2023-11-22T08:08:38;-0.40;99.90
6538;DHT22;3302;52.508;13.454;2023-11-22T08:11:06;-0.40;99.90
6538;DHT22;3302;52.508;13.454;2023-11-22T08:13:44;-0.40;99.90
6538;DHT22;3302;52.508;13.454;2023-11-22T08:16:11;-0.30;99.90
6538;DHT22;3302;52.508;13.454;2023-11-22T08:18:40;-0.30;99.90
6538;DHT22;3302;52.508;13.454;2023-11-22T08:21:09;-0.30;99.90
6538;DHT22;3302;52.508;13.454;2023-11-22T08:23:34;-0.40;99.90
6538;DHT22;3302;52.508;13.454;2023-11-22T08:26:00;-0.30;99.90
6538;DHT22;3302;52.508;13.454;2023-11-22T08:28:27;-0.40;99.90
6538;DHT22;3302;52.508;13.454;2023-11-22T08:30:52;-0.40;99.90
6538;DHT22;3302;52.508;13.454;2023-11-22T08:33:19;-0.30;99.90
6538;DHT22;3302;52.508;13.454;2023-11-22T08:35:44;-0.30;99.90
6538;DHT22;3302;52.508;13.454;2023-11-22T08:38:16;-0.30;99.90
6538;DHT22;3302;52.508;13.454;2023-11-22T08:40:42;-0.30;99.90
6538;DHT22;3302;52.508;13.454;2023-11-22T08:43:08;-0.20;99.90
6538;DHT22;3302;52.508;13.454;2023-11-22T08:45:34;-0.20;99.90
6538;DHT22;3302;52.508;13.454;2023-11-22T08:48:00;-0.10;99.60
6538;DHT22;3302;52.508;13.454;2023-11-22T08:50:26;0.10;99.80
6538;DHT22;3302;52.508;13.454;2023-11-22T08:52:53;0.10;99.20
6538;DHT22;3302;52.508;13.454;2023-11-22T08:55:19;0.30;99.40
6538;DHT22;3302;52.508;13.454;2023-11-22T08:57:48;0.20;98.70
6538;DHT22;3302;52.508;13.454;2023-11-22T09:00:17;0.20;98.50
6538;DHT22;3302;52.508;13.454;2023-11-22T09:02:48;0.20;97.40
6538;DHT22;3302;52.508;13.454;2023-11-22T09:05:14;0.10;97.30
6538;DHT22;3302;52.508;13.454;2023-11-22T09:07:45;0.30;97.50
6538;DHT22;3302;52.508;13.454;2023-11-22T09:10:12;0.40;97.60
6538;DHT22;3302;52.508;13.454;2023-11-22T09:12:42;0.60;96.70
6538;DHT22;3302;52.508;13.454;2023-11-22T09:15:13;0.60;95.00
6538;DHT22;3302;52.508;13.454;2023-11-22T09:17:45;0.50;94.30
6538;DHT22;3302;52.508;13.454;2023-11-22T09:20:12;0.30;94.10
6538;DHT22;3302;52.508;13.454;2023-11-22T09:22:45;0.60;94.80
6538;DHT22;3302;52.508;13.454;2023-11-22T09:25:16;0.80;94.40
6538;DHT22;3302;52.508;13.454;2023-11-22T09:27:45;0.70;93.10
6538;DHT22;3302;52.508;13.454;2023-11-22T09:30:22;0.80;93.70
6538;DHT22;3302;52.508;13.454;2023-11-22T09:33:11;0.60;94.10
6538;DHT22;3302;52.508;13.454;2023-11-22T09:35:38;0.80;94.30
6538;DHT22;3302;52.508;13.454;2023-11-22T09:38:08;1.00;94.70
6538;DHT22;3302;52.508;13.454;2023-11-22T09:40:48;0.80;94.40
6538;DHT22;3302;52.508;13.454;2023-11-22T09:43:16;0.90;93.90
6538;DHT22;3302;52.508;13.454;2023-11-22T09:45:47;1.00;93.90
6538;DHT22;3302;52.508;13.454;2023-11-22T09:48:17;1.00;93.90
6538;DHT22;3302;52.508;13.454;2023-11-22T09:53:29;1.10;93.30
6538;DHT22;3302;52.508;13.454;2023-11-22T09:55:57;1.20;93.90
6538;DHT22;3302;52.508;13.454;2023-11-22T09:58:23;1.30;93.80
6538;DHT22;3302;52.508;13.454;2023-11-22T10:00:50;1.20;91.70
6538;DHT22;3302;52.508;13.454;2023-11-22T10:03:18;1.20;92.40
6538;DHT22;3302;52.508;13.454;2023-11-22T10:05:45;1.40;92.10
6538;DHT22;3302;52.508;13.454;2023-11-22T10:08:11;1.30;91.20
6538;DHT22;3302;52.508;13.454;2023-11-22T10:10:37;1.40;91.80
6538;DHT22;3302;52.508;13.454;2023-11-22T10:13:03;1.60;91.20
6538;DHT22;3302;52.508;13.454;2023-11-22T10:15:29;1.50;91.10
6538;DHT22;3302;52.508;13.454;2023-11-22T10:17:59;1.60;91.40
6538;DHT22;3302;52.508;13.454;2023-11-22T10:20:39;1.80;91.10
6538;DHT22;3302;52.508;13.454;2023-11-22T10:23:08;1.90;91.60
6538;DHT22;3302;52.508;13.454;2023-11-22T10:25:36;1.70;91.40
6538;DHT22;3302;52.508;13.454;2023-11-22T10:28:01;1.80;90.70
6538;DHT22;3302;52.508;13.454;2023-11-22T10:30:27;1.80;90.70
6538;DHT22;3302;52.508;13.454;2023-11-22T10:32:54;1.90;90.80
6538;DHT22;3302;52.508;13.454;2023-11-22T10:35:21;1.70;90.60
6538;DHT22;3302;52.508;13.454;2023-11-22T10:37:48;1.80;90.60
6538;DHT22;3302;52.508;13.454;2023-11-22T10:40:14;1.90;90.80
6538;DHT22;3302;52.508;13.454;2023-11-22T10:42:42;1.90;90.60
6538;DHT22;3302;52.508;13.454;2023-11-22T10:45:12;1.80;90.40
6538;DHT22;3302;52.508;13.454;2023-11-22T10:47:39;1.90;90.80
6538;DHT22;3302;52.508;13.454;2023-11-22T10:50:07;1.70;90.20
6538;DHT22;3302;52.508;13.454;2023-11-22T10:52:35;1.80;90.60
6538;DHT22;3302;52.508;13.454;2023-11-22T10:55:03;1.70;89.70
6538;DHT22;3302;52.508;13.454;2023-11-22T10:57:39;1.50;90.00
6538;DHT22;3302;52.508;13.454;2023-11-22T11:00:08;1.50;90.30
6538;DHT22;3302;52.508;13.454;2023-11-22T11:02:46;1.70;90.20
6538;DHT22;3302;52.508;13.454;2023-11-22T11:05:16;1.80;88.60
6538;DHT22;3302;52.508;13.454;2023-11-22T11:07:57;2.20;90.10
6538;DHT22;3302;52.508;13.454;2023-11-22T11:10:26;2.20;89.50
6538;DHT22;3302;52.508;13.454;2023-11-22T11:12:52;2.00;86.80
6538;DHT22;3302;52.508;13.454;2023-11-22T11:15:21;1.90;87.10
6538;DHT22;3302;52.508;13.454;2023-11-22T11:17:47;1.90;87.70
6538;DHT22;3302;52.508;13.454;2023-11-22T11:20:18;2.00;88.50
6538;DHT22;3302;52.508;13.454;2023-11-22T11:22:47;2.30;89.00
6538;DHT22;3302;52.508;13.454;2023-11-22T11:25:15;2.40;87.50
6538;DHT22;3302;52.508;13.454;2023-11-22T11:27:44;2.30;86.50
6538;DHT22;3302;52.508;13.454;2023-11-22T11:32:58;2.00;86.50
6538;DHT22;3302;52.508;13.454;2023-11-22T11:38:08;1.90;85.30
6538;DHT22;3302;52.508;13.454;2023-11-22T11:40:35;1.80;86.20
6538;DHT22;3302;52.508;13.454;2023-11-22T11:43:04;2.00;86.90
6538;DHT22;3302;52.508;13.454;2023-11-22T11:45:30;2.20;87.30
6538;DHT22;3302;52.508;13.454;2023-11-22T11:47:56;2.20;86.80
6538;DHT22;3302;52.508;13.454;2023-11-22T11:50:22;2.20;86.20
6538;DHT22;3302;52.508;13.454;2023-11-22T11:52:48;2.30;86.60
6538;DHT22;3302;52.508;13.454;2023-11-22T11:55:14;2.30;86.30
6538;DHT22;3302;52.508;13.454;2023-11-22T11:57:40;2.20;84.90
6538;DHT22;3302;52.508;13.454;2023-11-22T12:00:08;2.40;85.90
6538;DHT22;3302;52.508;13.454;2023-11-22T12:02:35;2.50;86.00
6538;DHT22;3302;52.508;13.454;2023-11-22T12:05:01;2.10;85.10
6538;DHT22;3302;52.508;13.454;2023-11-22T12:07:37;2.30;85.30
6538;DHT22;3302;52.508;13.454;2023-11-22T12:10:06;2.60;87.10
6538;DHT22;3302;52.508;13.454;2023-11-22T12:12:33;2.80;85.70
6538;DHT22;3302;52.508;13.454;2023-11-22T12:15:00;2.80;84.20
6538;DHT22;3302;52.508;13.454;2023-11-22T12:17:26;2.50;83.00
6538;DHT22;3302;52.508;13.454;2023-11-22T12:20:15;2.40;84.00
6538;DHT22;3302;52.508;13.454;2023-11-22T12:22:43;2.30;84.10
6538;DHT22;3302;52.508;13.454;2023-11-22T12:25:11;2.30;84.00
6538;DHT22;3302;52.508;13.454;2023-11-22T12:27:42;2.40;84.40
6538;DHT22;3302;52.508;13.454;2023-11-22T12:30:31;2.10;83.90
6538;DHT22;3302;52.508;13.454;2023-11-22T12:33:09;2.20;84.70
6538;DHT22;3302;52.508;13.454;2023-11-22T12:35:36;2.30;85.40
6538;DHT22;3302;52.508;13.454;2023-11-22T12:38:04;2.40;84.90
6538;DHT22;3302;52.508;13.454;2023-11-22T12:40:31;2.40;86.40
6538;DHT22;3302;52.508;13.454;2023-11-22T12:42:58;2.50;85.40
6538;DHT22;3302;52.508;13.454;2023-11-22T12:45:26;2.50;85.00
6538;DHT22;3302;52.508;13.454;2023-11-22T12:47:53;2.60;84.20
6538;DHT22;3302;52.508;13.454;2023-11-22T12:50:38;2.70;81.90
6538;DHT22;3302;52.508;13.454;2023-11-22T12:53:23;2.60;81.00
6538;DHT22;3302;52.508;13.454;2023-11-22T12:55:53;2.40;81.80
6538;DHT22;3302;52.508;13.454;2023-11-22T12:58:23;2.40;82.30
6538;DHT22;3302;52.508;13.454;2023-11-22T13:00:51;2.40;82.40
6538;DHT22;3302;52.508;13.454;2023-11-22T13:03:24;2.50;83.20
6538;DHT22;3302;52.508;13.454;2023-11-22T13:05:50;2.30;82.50
6538;DHT22;3302;52.508;13.454;2023-11-22T13:08:19;2.30;83.10
6538;DHT22;3302;52.508;13.454;2023-11-22T13:10:51;2.50;83.20
6538;DHT22;3302;52.508;13.454;2023-11-22T13:13:23;2.50;84.10
6538;DHT22;3302;52.508;13.454;2023-11-22T13:15:50;2.40;83.60
6538;DHT22;3302;52.508;13.454;2023-11-22T13:18:16;2.40;82.90
6538;DHT22;3302;52.508;13.454;2023-11-22T13:20:42;2.40;83.90
6538;DHT22;3302;52.508;13.454;2023-11-22T13:23:08;2.40;84.20
6538;DHT22;3302;52.508;13.454;2023-11-22T13:25:35;2.50;84.40
6538;DHT22;3302;52.508;13.454;2023-11-22T13:28:01;2.50;84.50
6538;DHT22;3302;52.508;13.454;2023-11-22T13:30:27;2.50;84.00
6538;DHT22;3302;52.508;13.454;2023-11-22T13:32:55;2.40;84.50
6538;DHT22;3302;52.508;13.454;2023-11-22T13:35:24;2.30;84.90
6538;DHT22;3302;52.508;13.454;2023-11-22T13:37:53;2.50;86.60
6538;DHT22;3302;52.508;13.454;2023-11-22T13:40:19;2.60;85.30
6538;DHT22;3302;52.508;13.454;2023-11-22T13:42:50;2.40;85.00
6538;DHT22;3302;52.508;13.454;2023-11-22T13:45:19;2.30;85.20
6538;DHT22;3302;52.508;13.454;2023-11-22T13:47:53;2.30;85.40
6538;DHT22;3302;52.508;13.454;2023-11-22T13:50:39;2.30;84.50
6538;DHT22;3302;52.508;13.454;2023-11-22T13:53:05;2.20;83.80
6538;DHT22;3302;52.508;13.454;2023-11-22T13:55:31;2.20;84.50
6538;DHT22;3302;52.508;13.454;2023-11-22T13:57:59;2.20;85.10
6538;DHT22;3302;52.508;13.454;2023-11-22T14:00:27;2.10;81.50
6538;DHT22;3302;52.508;13.454;2023-11-22T14:02:58;2.00;82.60
6538;DHT22;3302;52.508;13.454;2023-11-22T14:05:30;2.10;82.40
6538;DHT22;3302;52.508;13.454;2023-11-22T14:07:56;2.00;82.10
6538;DHT22;3302;52.508;13.454;2023-11-22T14:10:22;2.10;81.80
6538;DHT22;3302;52.508;13.454;2023-11-22T14:12:49;2.00;80.30
6538;DHT22;3302;52.508;13.454;2023-11-22T14:15:15;1.90;80.40
6538;DHT22;3302;52.508;13.454;2023-11-22T14:17:41;2.00;80.30
6538;DHT22;3302;52.508;13.454;2023-11-22T14:20:08;2.10;81.30
6538;DHT22;3302;52.508;13.454;2023-11-22T14:22:38;1.90;81.80
6538;DHT22;3302;52.508;13.454;2023-11-22T14:25:08;1.90;83.00
6538;DHT22;3302;52.508;13.454;2023-11-22T14:27:45;1.90;83.50
6538;DHT22;3302;52.508;13.454;2023-11-22T14:30:11;1.70;84.10
6538;DHT22;3302;52.508;13.454;2023-11-22T14:32:41;1.70;84.70
6538;DHT22;3302;52.508;13.454;2023-11-22T14:35:10;1.80;85.20
6538;DHT22;3302;52.508;13.454;2023-11-22T14:37:36;1.90;85.40
6538;DHT22;3302;52.508;13.454;2023-11-22T14:40:08;1.80;86.40
6538;DHT22;3302;52.508;13.454;2023-11-22T14:42:41;1.90;87.40
6538;DHT22;3302;52.508;13.454;2023-11-22T14:45:08;1.80;86.40
6538;DHT22;3302;52.508;13.454;2023-11-22T14:47:34;1.80;88.10
6538;DHT22;3302;52.508;13.454;2023-11-22T14:50:02;1.80;86.90
6538;DHT22;3302;52.508;13.454;2023-11-22T14:52:32;1.80;87.00
6538;DHT22;3302;52.508;13.454;2023-11-22T14:54:57;1.70;87.70
6538;DHT22;3302;52.508;13.454;2023-11-22T14:57:26;1.70;88.50
6538;DHT22;3302;52.508;13.454;2023-11-22T14:59:52;1.70;89.40
6538;DHT22;3302;52.508;13.454;2023-11-22T15:02:17;1.60;89.60
6538;DHT22;3302;52.508;13.454;2023-11-22T15:04:44;1.50;89.40
6538;DHT22;3302;52.508;13.454;2023-11-22T15:07:11;1.40;89.90
6538;DHT22;3302;52.508;13.454;2023-11-22T15:09:37;1.50;89.90
6538;DHT22;3302;52.508;13.454;2023-11-22T15:12:03;1.50;90.00
6538;DHT22;3302;52.508;13.454;2023-11-22T15:14:30;1.50;89.50
6538;DHT22;3302;52.508;13.454;2023-11-22T15:16:56;1.40;89.80
6538;DHT22;3302;52.508;13.454;2023-11-22T15:19:22;1.40;89.80
6538;DHT22;3302;52.508;13.454;2023-11-22T15:21:52;1.40;89.00
6538;DHT22;3302;52.508;13.454;2023-11-22T15:24:19;1.40;89.80
6538;DHT22;3302;52.508;13.454;2023-11-22T15:26:45;1.40;90.40
6538;DHT22;3302;52.508;13.454;2023-11-22T15:29:11;1.50;90.00
6538;DHT22;3302;52.508;13.454;2023-11-22T15:31:38;1.40;89.60
6538;DHT22;3302;52.508;13.454;2023-11-22T15:34:06;1.40;89.40
6538;DHT22;3302;52.508;13.454;2023-11-22T15:36:32;1.50;89.40
6538;DHT22;3302;52.508;13.454;2023-11-22T15:39:00;1.50;89.20
6538;DHT22;3302;52.508;13.454;2023-11-22T15:41:26;1.40;89.30
6538;DHT22;3302;52.508;13.454;2023-11-22T15:43:52;1.40;90.10
6538;DHT22;3302;52.508;13.454;2023-11-22T15:46:18;1.40;90.40
6538;DHT22;3302;52.508;13.454;2023-11-22T15:48:48;1.40;90.10
6538;DHT22;3302;52.508;13.454;2023-11-22T15:51:14;1.40;90.00
6538;DHT22;3302;52.508;13.454;2023-11-22T15:53:42;1.50;90.50
6538;DHT22;3302;52.508;13.454;2023-11-22T15:56:08;1.50;90.50
6538;DHT22;3302;52.508;13.454;2023-11-22T15:58:41;1.40;90.80
6538;DHT22;3302;52.508;13.454;2023-11-22T16:01:07;1.40;91.00
6538;DHT22;3302;52.508;13.454;2023-11-22T16:03:33;1.30;90.70
6538;DHT22;3302;52.508;13.454;2023-11-22T16:06:00;1.30;91.00
6538;DHT22;3302;52.508;13.454;2023-11-22T16:08:29;1.40;91.30